sensor_id;sensor_type;location;lat;lon;timestamp;P1;durP1;ratioP1;P2;durP2;ratioP2
40076;SDS011;25777;47.824;18.982;2023-12-20T00:01:27;22.60;;;7.63;;
40076;SDS011;25777;47.824;18.982;2023-12-20T00:03:53;22.87;;;8.60;;
40076;SDS011;25777;47.824;18.982;2023-12-20T00:06:18;23.13;;;8.57;;
40076;SDS011;25777;47.824;18.982;2023-12-20T00:08:44;26.67;;;8.53;;
40076;SDS011;25777;47.824;18.982;2023-12-20T00:11:10;24.07;;;8.40;;
40076;SDS011;25777;47.824;18.982;2023-12-20T00:13:36;26.83;;;8.93;;
40076;SDS011;25777;47.824;18.982;2023-12-20T00:16:02;24.20;;;8.50;;
40076;SDS011;25777;47.824;18.982;2023-12-20T00:18:28;26.30;;;8.10;;
40076;SDS011;25777;47.824;18.982;2023-12-20T00:20:53;26.33;;;9.13;;
40076;SDS011;25777;47.824;18.982;2023-12-20T00:23:19;27.60;;;8.00;;
40076;SDS011;25777;47.824;18.982;2023-12-20T00:25:45;22.77;;;7.77;;
40076;SDS011;25777;47.824;18.982;2023-12-20T00:28:11;25.67;;;7.67;;
40076;SDS011;25777;47.824;18.982;2023-12-20T00:30:36;26.80;;;8.50;;
40076;SDS011;25777;47.824;18.982;2023-12-20T00:33:02;24.50;;;8.77;;
40076;SDS011;25777;47.824;18.982;2023-12-20T00:35:28;25.03;;;8.67;;
40076;SDS011;25777;47.824;18.982;2023-12-20T00:37:54;23.37;;;7.63;;
40076;SDS011;25777;47.824;18.982;2023-12-20T00:40:20;22.10;;;7.93;;
40076;SDS011;25777;47.824;18.982;2023-12-20T00:42:46;25.10;;;8.90;;
40076;SDS011;25777;47.824;18.982;2023-12-20T00:45:12;28.00;;;8.77;;
40076;SDS011;25777;47.824;18.982;2023-12-20T00:47:39;26.57;;;8.97;;
40076;SDS011;25777;47.824;18.982;2023-12-20T00:50:05;22.80;;;8.30;;
40076;SDS011;25777;47.824;18.982;2023-12-20T00:52:32;24.27;;;8.00;;
40076;SDS011;25777;47.824;18.982;2023-12-20T00:54:58;25.27;;;8.43;;
40076;SDS011;25777;47.824;18.982;2023-12-20T00:57:23;24.53;;;8.10;;
40076;SDS011;25777;47.824;18.982;2023-12-20T00:59:50;23.90;;;8.00;;
40076;SDS011;25777;47.824;18.982;2023-12-20T01:02:16;19.70;;;8.03;;
40076;SDS011;25777;47.824;18.982;2023-12-20T01:04:42;21.00;;;7.87;;
40076;SDS011;25777;47.824;18.982;2023-12-20T01:07:08;23.13;;;7.60;;
40076;SDS011;25777;47.824;18.982;2023-12-20T01:09:33;27.10;;;8.60;;
40076;SDS011;25777;47.824;18.982;2023-12-20T01:11:59;22.73;;;7.83;;
40076;SDS011;25777;47.824;18.982;2023-12-20T01:14:25;23.47;;;7.80;;
40076;SDS011;25777;47.824;18.982;2023-12-20T01:16:51;23.43;;;7.37;;
40076;SDS011;25777;47.824;18.982;2023-12-20T01:19:16;25.57;;;8.17;;
40076;SDS011;25777;47.824;18.982;2023-12-20T01:21:43;22.60;;;8.07;;
40076;SDS011;25777;47.824;18.982;2023-12-20T01:24:09;21.47;;;7.57;;
40076;SDS011;25777;47.824;18.982;2023-12-20T01:26:35;18.80;;;6.73;;
40076;SDS011;25777;47.824;18.982;2023-12-20T01:29:01;21.30;;;8.20;;
40076;SDS011;25777;47.824;18.982;2023-12-20T01:31:27;23.83;;;8.23;;
40076;SDS011;25777;47.824;18.982;2023-12-20T01:33:52;21.47;;;7.90;;
40076;SDS011;25777;47.824;18.982;2023-12-20T01:36:19;21.50;;;7.77;;
40076;SDS011;25777;47.824;18.982;2023-12-20T01:38:44;23.90;;;9.13;;
40076;SDS011;25777;47.824;18.982;2023-12-20T01:41:10;19.47;;;8.17;;
40076;SDS011;25777;47.824;18.982;2023-12-20T01:43:36;22.37;;;7.27;;
40076;SDS011;25777;47.824;18.982;2023-12-20T01:46:02;24.43;;;8.17;;
40076;SDS011;25777;47.824;18.982;2023-12-20T01:48:28;26.63;;;8.03;;
40076;SDS011;25777;47.824;18.982;2023-12-20T01:50:57;22.23;;;6.87;;
40076;SDS011;25777;47.824;18.982;2023-12-20T01:53:24;27.73;;;8.53;;
40076;SDS011;25777;47.824;18.982;2023-12-20T01:55:52;21.13;;;8.20;;
40076;SDS011;25777;47.824;18.982;2023-12-20T01:58:21;21.67;;;7.90;;
40076;SDS011;25777;47.824;18.982;2023-12-20T02:00:48;23.37;;;8.07;;
40076;SDS011;25777;47.824;18.982;2023-12-20T02:03:14;22.23;;;8.20;;
40076;SDS011;25777;47.824;18.982;2023-12-20T02:05:40;23.23;;;8.70;;
40076;SDS011;25777;47.824;18.982;2023-12-20T02:08:06;26.23;;;9.00;;
40076;SDS011;25777;47.824;18.982;2023-12-20T02:10:32;24.70;;;8.80;;
40076;SDS011;25777;47.824;18.982;2023-12-20T02:12:59;27.07;;;9.30;;
40076;SDS011;25777;47.824;18.982;2023-12-20T02:15:25;28.87;;;9.70;;
40076;SDS011;25777;47.824;18.982;2023-12-20T02:17:51;28.03;;;8.63;;
40076;SDS011;25777;47.824;18.982;2023-12-20T02:20:17;27.70;;;8.73;;
40076;SDS011;25777;47.824;18.982;2023-12-20T02:22:42;29.73;;;9.30;;
40076;SDS011;25777;47.824;18.982;2023-12-20T02:25:08;29.43;;;8.37;;
40076;SDS011;25777;47.824;18.982;2023-12-20T02:27:34;25.37;;;8.73;;
40076;SDS011;25777;47.824;18.982;2023-12-20T02:30:00;24.50;;;8.93;;
40076;SDS011;25777;47.824;18.982;2023-12-20T02:32:26;24.00;;;9.20;;
40076;SDS011;25777;47.824;18.982;2023-12-20T02:34:52;26.10;;;8.23;;
40076;SDS011;25777;47.824;18.982;2023-12-20T02:37:18;27.60;;;9.07;;
40076;SDS011;25777;47.824;18.982;2023-12-20T02:39:44;27.77;;;8.97;;
40076;SDS011;25777;47.824;18.982;2023-12-20T02:42:10;26.90;;;8.63;;
40076;SDS011;25777;47.824;18.982;2023-12-20T02:44:36;28.40;;;8.47;;
40076;SDS011;25777;47.824;18.982;2023-12-20T02:47:02;26.80;;;8.90;;
40076;SDS011;25777;47.824;18.982;2023-12-20T02:49:28;25.70;;;8.87;;
40076;SDS011;25777;47.824;18.982;2023-12-20T02:51:54;27.03;;;8.00;;
40076;SDS011;25777;47.824;18.982;2023-12-20T02:54:19;25.93;;;7.83;;
40076;SDS011;25777;47.824;18.982;2023-12-20T02:56:45;28.40;;;9.00;;
40076;SDS011;25777;47.824;18.982;2023-12-20T02:59:12;24.07;;;8.17;;
40076;SDS011;25777;47.824;18.982;2023-12-20T03:01:41;22.07;;;8.20;;
40076;SDS011;25777;47.824;18.982;2023-12-20T03:04:08;26.20;;;8.17;;
40076;SDS011;25777;47.824;18.982;2023-12-20T03:06:34;22.00;;;7.40;;
40076;SDS011;25777;47.824;18.982;2023-12-20T03:09:00;24.17;;;7.87;;
40076;SDS011;25777;47.824;18.982;2023-12-20T03:11:26;21.03;;;7.87;;
40076;SDS011;25777;47.824;18.982;2023-12-20T03:13:53;26.90;;;9.10;;
40076;SDS011;25777;47.824;18.982;2023-12-20T03:16:18;22.10;;;7.53;;
40076;SDS011;25777;47.824;18.982;2023-12-20T03:18:44;24.37;;;7.17;;
40076;SDS011;25777;47.824;18.982;2023-12-20T03:21:10;18.23;;;7.03;;
40076;SDS011;25777;47.824;18.982;2023-12-20T03:23:36;20.33;;;7.07;;
40076;SDS011;25777;47.824;18.982;2023-12-20T03:26:01;22.20;;;8.00;;
40076;SDS011;25777;47.824;18.982;2023-12-20T03:28:29;17.83;;;6.97;;
40076;SDS011;25777;47.824;18.982;2023-12-20T03:30:55;20.17;;;7.70;;
40076;SDS011;25777;47.824;18.982;2023-12-20T03:33:21;20.40;;;7.50;;
40076;SDS011;25777;47.824;18.982;2023-12-20T03:35:47;17.50;;;6.93;;
40076;SDS011;25777;47.824;18.982;2023-12-20T03:38:12;19.27;;;7.33;;
40076;SDS011;25777;47.824;18.982;2023-12-20T03:40:38;18.80;;;6.87;;
40076;SDS011;25777;47.824;18.982;2023-12-20T03:43:04;18.07;;;6.97;;
40076;SDS011;25777;47.824;18.982;2023-12-20T03:45:30;17.73;;;7.00;;
40076;SDS011;25777;47.824;18.982;2023-12-20T03:47:56;20.70;;;7.30;;
40076;SDS011;25777;47.824;18.982;2023-12-20T03:50:22;20.33;;;6.93;;
40076;SDS011;25777;47.824;18.982;2023-12-20T03:52:48;20.13;;;6.83;;
40076;SDS011;25777;47.824;18.982;2023-12-20T03:55:14;20.23;;;6.83;;
40076;SDS011;25777;47.824;18.982;2023-12-20T03:57:40;19.20;;;7.53;;
40076;SDS011;25777;47.824;18.982;2023-12-20T04:00:09;18.73;;;7.07;;
40076;SDS011;25777;47.824;18.982;2023-12-20T04:02:36;18.60;;;6.93;;
40076;SDS011;25777;47.824;18.982;2023-12-20T04:05:03;21.30;;;7.30;;
40076;SDS011;25777;47.824;18.982;2023-12-20T04:07:30;21.50;;;7.70;;
40076;SDS011;25777;47.824;18.982;2023-12-20T04:09:56;20.57;;;7.37;;
40076;SDS011;25777;47.824;18.982;2023-12-20T04:12:22;22.20;;;7.27;;
40076;SDS011;25777;47.824;18.982;2023-12-20T04:14:47;19.73;;;7.30;;
40076;SDS011;25777;47.824;18.982;2023-12-20T04:17:14;23.57;;;8.57;;
40076;SDS011;25777;47.824;18.982;2023-12-20T04:19:41;20.90;;;7.57;;
40076;SDS011;25777;47.824;18.982;2023-12-20T04:22:07;20.37;;;7.17;;
40076;SDS011;25777;47.824;18.982;2023-12-20T04:24:33;22.13;;;8.03;;
40076;SDS011;25777;47.824;18.982;2023-12-20T04:26:59;21.20;;;8.10;;
40076;SDS011;25777;47.824;18.982;2023-12-20T04:29:25;21.03;;;7.10;;
40076;SDS011;25777;47.824;18.982;2023-12-20T04:31:51;19.20;;;7.57;;
40076;SDS011;25777;47.824;18.982;2023-12-20T04:34:17;22.23;;;7.30;;
40076;SDS011;25777;47.824;18.982;2023-12-20T04:36:43;20.13;;;7.17;;
40076;SDS011;25777;47.824;18.982;2023-12-20T04:39:09;19.33;;;6.93;;
40076;SDS011;25777;47.824;18.982;2023-12-20T04:41:36;22.60;;;7.50;;
40076;SDS011;25777;47.824;18.982;2023-12-20T04:44:02;19.37;;;7.83;;
40076;SDS011;25777;47.824;18.982;2023-12-20T04:46:28;22.73;;;7.83;;
40076;SDS011;25777;47.824;18.982;2023-12-20T04:48:54;20.07;;;6.67;;
40076;SDS011;25777;47.824;18.982;2023-12-20T04:51:20;19.90;;;7.13;;
40076;SDS011;25777;47.824;18.982;2023-12-20T04:53:46;19.93;;;7.60;;
40076;SDS011;25777;47.824;18.982;2023-12-20T04:56:12;20.57;;;7.30;;
40076;SDS011;25777;47.824;18.982;2023-12-20T04:58:37;21.13;;;7.67;;
40076;SDS011;25777;47.824;18.982;2023-12-20T05:01:04;19.13;;;7.33;;
40076;SDS011;25777;47.824;18.982;2023-12-20T05:03:31;20.43;;;7.80;;
40076;SDS011;25777;47.824;18.982;2023-12-20T05:05:58;16.40;;;7.87;;
40076;SDS011;25777;47.824;18.982;2023-12-20T05:08:23;20.43;;;7.40;;
40076;SDS011;25777;47.824;18.982;2023-12-20T05:10:50;22.70;;;8.13;;
40076;SDS011;25777;47.824;18.982;2023-12-20T05:13:19;24.17;;;8.10;;
40076;SDS011;25777;47.824;18.982;2023-12-20T05:15:45;21.73;;;8.67;;
40076;SDS011;25777;47.824;18.982;2023-12-20T05:18:12;24.23;;;8.70;;
40076;SDS011;25777;47.824;18.982;2023-12-20T05:20:38;29.93;;;9.87;;
40076;SDS011;25777;47.824;18.982;2023-12-20T05:23:04;27.70;;;8.57;;
40076;SDS011;25777;47.824;18.982;2023-12-20T05:25:30;21.63;;;7.87;;
40076;SDS011;25777;47.824;18.982;2023-12-20T05:27:56;27.67;;;8.63;;
40076;SDS011;25777;47.824;18.982;2023-12-20T05:30:22;24.57;;;8.97;;
40076;SDS011;25777;47.824;18.982;2023-12-20T05:32:48;27.43;;;9.27;;
40076;SDS011;25777;47.824;18.982;2023-12-20T05:35:14;25.57;;;9.27;;
40076;SDS011;25777;47.824;18.982;2023-12-20T05:37:40;26.57;;;8.70;;
40076;SDS011;25777;47.824;18.982;2023-12-20T05:40:06;24.07;;;8.50;;
40076;SDS011;25777;47.824;18.982;2023-12-20T05:42:36;31.80;;;9.47;;
40076;SDS011;25777;47.824;18.982;2023-12-20T05:45:02;25.47;;;8.83;;
40076;SDS011;25777;47.824;18.982;2023-12-20T05:47:29;25.50;;;9.00;;
40076;SDS011;25777;47.824;18.982;2023-12-20T05:49:55;25.47;;;8.77;;
40076;SDS011;25777;47.824;18.982;2023-12-20T05:52:20;27.73;;;9.67;;
40076;SDS011;25777;47.824;18.982;2023-12-20T05:54:47;24.67;;;9.23;;
40076;SDS011;25777;47.824;18.982;2023-12-20T05:57:13;27.40;;;8.80;;
40076;SDS011;25777;47.824;18.982;2023-12-20T05:59:38;30.10;;;10.33;;
40076;SDS011;25777;47.824;18.982;2023-12-20T06:02:04;32.37;;;10.97;;
40076;SDS011;25777;47.824;18.982;2023-12-20T06:04:30;28.37;;;10.10;;
40076;SDS011;25777;47.824;18.982;2023-12-20T06:06:56;29.53;;;8.80;;
40076;SDS011;25777;47.824;18.982;2023-12-20T06:09:22;28.10;;;8.87;;
40076;SDS011;25777;47.824;18.982;2023-12-20T06:11:48;31.53;;;8.67;;
40076;SDS011;25777;47.824;18.982;2023-12-20T06:14:14;27.60;;;9.43;;
40076;SDS011;25777;47.824;18.982;2023-12-20T06:16:40;27.17;;;10.37;;
40076;SDS011;25777;47.824;18.982;2023-12-20T06:19:06;26.00;;;9.03;;
40076;SDS011;25777;47.824;18.982;2023-12-20T06:21:32;27.73;;;10.30;;
40076;SDS011;25777;47.824;18.982;2023-12-20T06:23:58;28.27;;;9.57;;
40076;SDS011;25777;47.824;18.982;2023-12-20T06:26:24;28.83;;;10.27;;
40076;SDS011;25777;47.824;18.982;2023-12-20T06:28:50;31.27;;;11.07;;
40076;SDS011;25777;47.824;18.982;2023-12-20T06:31:16;31.67;;;9.80;;
40076;SDS011;25777;47.824;18.982;2023-12-20T06:33:42;26.00;;;9.40;;
40076;SDS011;25777;47.824;18.982;2023-12-20T06:36:12;29.30;;;8.87;;
40076;SDS011;25777;47.824;18.982;2023-12-20T06:38:38;28.83;;;8.63;;
40076;SDS011;25777;47.824;18.982;2023-12-20T06:41:04;23.67;;;8.37;;
40076;SDS011;25777;47.824;18.982;2023-12-20T06:43:31;22.87;;;7.40;;
40076;SDS011;25777;47.824;18.982;2023-12-20T06:45:57;20.77;;;7.60;;
40076;SDS011;25777;47.824;18.982;2023-12-20T06:48:25;25.07;;;7.83;;
40076;SDS011;25777;47.824;18.982;2023-12-20T06:50:51;19.63;;;7.73;;
40076;SDS011;25777;47.824;18.982;2023-12-20T06:53:17;22.27;;;7.57;;
40076;SDS011;25777;47.824;18.982;2023-12-20T06:55:43;25.93;;;8.27;;
40076;SDS011;25777;47.824;18.982;2023-12-20T06:58:09;22.93;;;7.70;;
40076;SDS011;25777;47.824;18.982;2023-12-20T07:00:35;19.93;;;7.30;;
40076;SDS011;25777;47.824;18.982;2023-12-20T07:03:01;16.60;;;5.93;;
40076;SDS011;25777;47.824;18.982;2023-12-20T07:05:26;22.27;;;8.33;;
40076;SDS011;25777;47.824;18.982;2023-12-20T07:07:52;23.03;;;7.60;;
40076;SDS011;25777;47.824;18.982;2023-12-20T07:10:18;23.07;;;7.97;;
40076;SDS011;25777;47.824;18.982;2023-12-20T07:12:44;19.67;;;7.47;;
40076;SDS011;25777;47.824;18.982;2023-12-20T07:15:10;19.33;;;7.00;;
40076;SDS011;25777;47.824;18.982;2023-12-20T07:17:36;24.87;;;8.40;;
40076;SDS011;25777;47.824;18.982;2023-12-20T07:20:03;19.63;;;7.17;;
40076;SDS011;25777;47.824;18.982;2023-12-20T07:22:30;23.13;;;7.63;;
40076;SDS011;25777;47.824;18.982;2023-12-20T07:24:59;23.30;;;8.23;;
40076;SDS011;25777;47.824;18.982;2023-12-20T07:27:25;19.17;;;7.27;;
40076;SDS011;25777;47.824;18.982;2023-12-20T07:29:51;20.77;;;7.10;;
40076;SDS011;25777;47.824;18.982;2023-12-20T07:32:17;22.87;;;8.07;;
40076;SDS011;25777;47.824;18.982;2023-12-20T07:34:44;20.30;;;7.03;;
40076;SDS011;25777;47.824;18.982;2023-12-20T07:37:10;24.70;;;7.33;;
40076;SDS011;25777;47.824;18.982;2023-12-20T07:39:39;19.23;;;7.03;;
40076;SDS011;25777;47.824;18.982;2023-12-20T07:42:06;20.63;;;7.17;;
40076;SDS011;25777;47.824;18.982;2023-12-20T07:44:32;20.43;;;7.60;;
40076;SDS011;25777;47.824;18.982;2023-12-20T07:46:58;17.03;;;6.93;;
40076;SDS011;25777;47.824;18.982;2023-12-20T07:49:26;19.17;;;6.37;;
40076;SDS011;25777;47.824;18.982;2023-12-20T07:51:51;19.20;;;7.00;;
40076;SDS011;25777;47.824;18.982;2023-12-20T07:54:17;19.17;;;6.90;;
40076;SDS011;25777;47.824;18.982;2023-12-20T07:56:43;22.13;;;7.87;;
40076;SDS011;25777;47.824;18.982;2023-12-20T07:59:10;21.17;;;7.50;;
40076;SDS011;25777;47.824;18.982;2023-12-20T08:01:36;21.27;;;6.83;;
40076;SDS011;25777;47.824;18.982;2023-12-20T08:04:02;17.80;;;6.33;;
40076;SDS011;25777;47.824;18.982;2023-12-20T08:06:34;19.83;;;7.73;;
40076;SDS011;25777;47.824;18.982;2023-12-20T08:08:59;20.67;;;7.67;;
40076;SDS011;25777;47.824;18.982;2023-12-20T08:11:25;20.87;;;7.23;;
40076;SDS011;25777;47.824;18.982;2023-12-20T08:13:51;20.50;;;7.33;;
40076;SDS011;25777;47.824;18.982;2023-12-20T08:16:17;19.53;;;6.53;;
40076;SDS011;25777;47.824;18.982;2023-12-20T08:18:43;27.90;;;8.73;;
40076;SDS011;25777;47.824;18.982;2023-12-20T08:21:09;21.80;;;8.10;;
40076;SDS011;25777;47.824;18.982;2023-12-20T08:23:35;21.90;;;8.13;;
40076;SDS011;25777;47.824;18.982;2023-12-20T08:26:05;19.57;;;7.30;;
40076;SDS011;25777;47.824;18.982;2023-12-20T08:28:31;21.47;;;7.80;;
40076;SDS011;25777;47.824;18.982;2023-12-20T08:30:57;21.63;;;7.43;;
40076;SDS011;25777;47.824;18.982;2023-12-20T08:33:23;23.10;;;8.10;;
40076;SDS011;25777;47.824;18.982;2023-12-20T08:35:49;22.70;;;7.43;;
40076;SDS011;25777;47.824;18.982;2023-12-20T08:38:15;23.63;;;8.97;;
40076;SDS011;25777;47.824;18.982;2023-12-20T08:40:42;19.63;;;5.83;;
40076;SDS011;25777;47.824;18.982;2023-12-20T08:43:08;19.30;;;7.27;;
40076;SDS011;25777;47.824;18.982;2023-12-20T08:45:34;18.30;;;7.63;;
40076;SDS011;25777;47.824;18.982;2023-12-20T08:48:00;21.83;;;8.07;;
40076;SDS011;25777;47.824;18.982;2023-12-20T08:50:26;19.60;;;7.90;;
40076;SDS011;25777;47.824;18.982;2023-12-20T08:52:52;15.10;;;5.77;;
40076;SDS011;25777;47.824;18.982;2023-12-20T08:55:19;18.37;;;5.93;;
40076;SDS011;25777;47.824;18.982;2023-12-20T08:57:45;18.37;;;7.33;;
40076;SDS011;25777;47.824;18.982;2023-12-20T09:00:10;20.67;;;6.93;;
40076;SDS011;25777;47.824;18.982;2023-12-20T09:02:37;20.07;;;7.67;;
40076;SDS011;25777;47.824;18.982;2023-12-20T09:05:03;20.27;;;7.33;;
40076;SDS011;25777;47.824;18.982;2023-12-20T09:07:29;21.00;;;7.40;;
40076;SDS011;25777;47.824;18.982;2023-12-20T09:09:58;21.77;;;7.87;;
40076;SDS011;25777;47.824;18.982;2023-12-20T09:12:24;17.77;;;7.40;;
40076;SDS011;25777;47.824;18.982;2023-12-20T09:14:50;16.87;;;6.57;;
40076;SDS011;25777;47.824;18.982;2023-12-20T09:17:17;19.40;;;7.50;;
40076;SDS011;25777;47.824;18.982;2023-12-20T09:19:44;18.17;;;6.97;;
40076;SDS011;25777;47.824;18.982;2023-12-20T09:22:10;18.10;;;7.40;;
40076;SDS011;25777;47.824;18.982;2023-12-20T09:24:36;18.17;;;7.07;;
40076;SDS011;25777;47.824;18.982;2023-12-20T09:27:03;19.60;;;7.50;;
40076;SDS011;25777;47.824;18.982;2023-12-20T09:29:30;20.13;;;7.80;;
40076;SDS011;25777;47.824;18.982;2023-12-20T09:31:56;18.67;;;7.17;;
40076;SDS011;25777;47.824;18.982;2023-12-20T09:34:22;19.27;;;8.03;;
40076;SDS011;25777;47.824;18.982;2023-12-20T09:36:49;23.50;;;8.73;;
40076;SDS011;25777;47.824;18.982;2023-12-20T09:39:16;21.63;;;8.90;;
40076;SDS011;25777;47.824;18.982;2023-12-20T09:41:46;25.07;;;9.80;;
40076;SDS011;25777;47.824;18.982;2023-12-20T09:44:31;27.77;;;9.90;;
40076;SDS011;25777;47.824;18.982;2023-12-20T09:46:59;28.83;;;10.97;;
40076;SDS011;25777;47.824;18.982;2023-12-20T09:49:28;27.10;;;10.57;;
40076;SDS011;25777;47.824;18.982;2023-12-20T09:51:55;29.67;;;10.70;;
40076;SDS011;25777;47.824;18.982;2023-12-20T09:54:22;28.10;;;11.33;;
40076;SDS011;25777;47.824;18.982;2023-12-20T09:56:48;30.33;;;11.33;;
40076;SDS011;25777;47.824;18.982;2023-12-20T09:59:14;26.40;;;10.90;;
40076;SDS011;25777;47.824;18.982;2023-12-20T10:01:41;33.73;;;12.90;;
40076;SDS011;25777;47.824;18.982;2023-12-20T10:04:07;29.73;;;12.27;;
40076;SDS011;25777;47.824;18.982;2023-12-20T10:06:40;28.23;;;11.50;;
40076;SDS011;25777;47.824;18.982;2023-12-20T10:09:07;28.30;;;11.93;;
40076;SDS011;25777;47.824;18.982;2023-12-20T10:11:35;32.77;;;14.50;;
40076;SDS011;25777;47.824;18.982;2023-12-20T10:14:02;30.03;;;11.63;;
40076;SDS011;25777;47.824;18.982;2023-12-20T10:16:29;30.10;;;11.17;;
40076;SDS011;25777;47.824;18.982;2023-12-20T10:18:55;31.50;;;12.30;;
40076;SDS011;25777;47.824;18.982;2023-12-20T10:21:22;31.40;;;14.30;;
40076;SDS011;25777;47.824;18.982;2023-12-20T10:23:49;56.00;;;25.93;;
40076;SDS011;25777;47.824;18.982;2023-12-20T10:29:00;36.67;;;14.77;;
40076;SDS011;25777;47.824;18.982;2023-12-20T10:31:29;36.90;;;13.80;;
40076;SDS011;25777;47.824;18.982;2023-12-20T10:33:56;37.97;;;13.67;;
40076;SDS011;25777;47.824;18.982;2023-12-20T10:36:24;38.80;;;14.97;;
40076;SDS011;25777;47.824;18.982;2023-12-20T10:38:55;37.83;;;15.50;;
40076;SDS011;25777;47.824;18.982;2023-12-20T10:41:29;37.33;;;15.33;;
40076;SDS011;25777;47.824;18.982;2023-12-20T10:44:00;38.70;;;14.77;;
40076;SDS011;25777;47.824;18.982;2023-12-20T10:46:28;42.97;;;17.03;;
40076;SDS011;25777;47.824;18.982;2023-12-20T10:48:55;40.50;;;16.27;;
40076;SDS011;25777;47.824;18.982;2023-12-20T10:51:22;42.97;;;16.40;;
40076;SDS011;25777;47.824;18.982;2023-12-20T10:53:49;39.70;;;15.67;;
40076;SDS011;25777;47.824;18.982;2023-12-20T10:56:18;33.37;;;14.60;;
40076;SDS011;25777;47.824;18.982;2023-12-20T10:58:46;39.70;;;15.83;;
40076;SDS011;25777;47.824;18.982;2023-12-20T11:01:14;34.33;;;14.27;;
40076;SDS011;25777;47.824;18.982;2023-12-20T11:03:49;37.13;;;14.60;;
40076;SDS011;25777;47.824;18.982;2023-12-20T11:14:48;34.27;;;14.73;;
40076;SDS011;25777;47.824;18.982;2023-12-20T11:17:16;37.80;;;16.13;;
40076;SDS011;25777;47.824;18.982;2023-12-20T11:22:18;32.60;;;12.53;;
40076;SDS011;25777;47.824;18.982;2023-12-20T11:24:48;33.10;;;14.37;;
40076;SDS011;25777;47.824;18.982;2023-12-20T11:27:15;42.07;;;18.60;;
40076;SDS011;25777;47.824;18.982;2023-12-20T11:29:41;32.50;;;13.63;;
40076;SDS011;25777;47.824;18.982;2023-12-20T11:34:57;36.23;;;15.90;;
40076;SDS011;25777;47.824;18.982;2023-12-20T11:37:31;38.80;;;14.67;;
40076;SDS011;25777;47.824;18.982;2023-12-20T11:40:02;36.57;;;16.87;;
40076;SDS011;25777;47.824;18.982;2023-12-20T11:42:33;44.10;;;18.27;;
40076;SDS011;25777;47.824;18.982;2023-12-20T11:45:03;40.38;;;16.17;;
40076;SDS011;25777;47.824;18.982;2023-12-20T11:47:29;33.37;;;13.43;;
40076;SDS011;25777;47.824;18.982;2023-12-20T11:49:56;49.30;;;20.97;;
40076;SDS011;25777;47.824;18.982;2023-12-20T11:52:22;45.60;;;17.80;;
40076;SDS011;25777;47.824;18.982;2023-12-20T11:54:48;40.87;;;16.53;;
40076;SDS011;25777;47.824;18.982;2023-12-20T11:57:14;40.40;;;17.13;;
40076;SDS011;25777;47.824;18.982;2023-12-20T11:59:40;32.00;;;13.63;;
40076;SDS011;25777;47.824;18.982;2023-12-20T12:02:05;47.20;;;20.43;;
40076;SDS011;25777;47.824;18.982;2023-12-20T12:04:31;43.50;;;17.90;;
40076;SDS011;25777;47.824;18.982;2023-12-20T12:06:57;56.03;;;26.07;;
40076;SDS011;25777;47.824;18.982;2023-12-20T12:09:23;42.60;;;20.60;;
40076;SDS011;25777;47.824;18.982;2023-12-20T12:11:49;50.40;;;23.17;;
40076;SDS011;25777;47.824;18.982;2023-12-20T12:14:15;53.90;;;21.93;;
40076;SDS011;25777;47.824;18.982;2023-12-20T12:16:43;46.37;;;18.90;;
40076;SDS011;25777;47.824;18.982;2023-12-20T12:19:20;38.97;;;16.83;;
40076;SDS011;25777;47.824;18.982;2023-12-20T12:22:11;35.30;;;14.30;;
40076;SDS011;25777;47.824;18.982;2023-12-20T12:24:38;37.87;;;14.63;;
40076;SDS011;25777;47.824;18.982;2023-12-20T12:27:08;29.47;;;13.33;;
40076;SDS011;25777;47.824;18.982;2023-12-20T12:29:34;34.77;;;14.47;;
40076;SDS011;25777;47.824;18.982;2023-12-20T12:32:01;31.57;;;13.93;;
40076;SDS011;25777;47.824;18.982;2023-12-20T12:34:31;33.17;;;13.87;;
40076;SDS011;25777;47.824;18.982;2023-12-20T12:36:57;28.50;;;13.07;;
40076;SDS011;25777;47.824;18.982;2023-12-20T12:39:24;31.97;;;13.23;;
40076;SDS011;25777;47.824;18.982;2023-12-20T12:41:52;32.93;;;13.27;;
40076;SDS011;25777;47.824;18.982;2023-12-20T12:44:19;30.70;;;13.60;;
40076;SDS011;25777;47.824;18.982;2023-12-20T12:46:45;31.43;;;14.20;;
40076;SDS011;25777;47.824;18.982;2023-12-20T12:49:12;28.70;;;12.30;;
40076;SDS011;25777;47.824;18.982;2023-12-20T12:51:38;30.27;;;12.87;;
40076;SDS011;25777;47.824;18.982;2023-12-20T12:54:04;30.27;;;12.07;;
40076;SDS011;25777;47.824;18.982;2023-12-20T12:56:30;30.50;;;13.83;;
40076;SDS011;25777;47.824;18.982;2023-12-20T12:58:56;26.93;;;11.57;;
40076;SDS011;25777;47.824;18.982;2023-12-20T13:01:22;25.50;;;12.03;;
40076;SDS011;25777;47.824;18.982;2023-12-20T13:03:47;27.40;;;12.00;;
40076;SDS011;25777;47.824;18.982;2023-12-20T13:06:13;26.43;;;12.73;;
40076;SDS011;25777;47.824;18.982;2023-12-20T13:08:39;29.13;;;12.17;;
40076;SDS011;25777;47.824;18.982;2023-12-20T13:11:05;34.37;;;15.87;;
40076;SDS011;25777;47.824;18.982;2023-12-20T13:13:31;33.53;;;13.87;;
40076;SDS011;25777;47.824;18.982;2023-12-20T13:15:57;26.17;;;10.90;;
40076;SDS011;25777;47.824;18.982;2023-12-20T13:18:22;26.80;;;12.10;;
40076;SDS011;25777;47.824;18.982;2023-12-20T13:20:49;23.83;;;11.63;;
40076;SDS011;25777;47.824;18.982;2023-12-20T13:23:15;32.03;;;14.07;;
40076;SDS011;25777;47.824;18.982;2023-12-20T13:25:43;32.30;;;14.90;;
40076;SDS011;25777;47.824;18.982;2023-12-20T13:28:10;36.17;;;15.77;;
40076;SDS011;25777;47.824;18.982;2023-12-20T13:30:37;28.23;;;12.87;;
40076;SDS011;25777;47.824;18.982;2023-12-20T13:33:04;28.57;;;13.13;;
40076;SDS011;25777;47.824;18.982;2023-12-20T13:35:30;27.27;;;12.63;;
40076;SDS011;25777;47.824;18.982;2023-12-20T13:37:57;45.73;;;20.83;;
40076;SDS011;25777;47.824;18.982;2023-12-20T13:40:23;33.67;;;15.07;;
40076;SDS011;25777;47.824;18.982;2023-12-20T13:42:49;38.23;;;16.60;;
40076;SDS011;25777;47.824;18.982;2023-12-20T13:45:15;38.87;;;16.63;;
40076;SDS011;25777;47.824;18.982;2023-12-20T13:47:41;34.97;;;15.37;;
40076;SDS011;25777;47.824;18.982;2023-12-20T13:50:07;31.53;;;15.03;;
40076;SDS011;25777;47.824;18.982;2023-12-20T13:52:33;38.57;;;16.00;;
40076;SDS011;25777;47.824;18.982;2023-12-20T13:54:59;35.37;;;14.93;;
40076;SDS011;25777;47.824;18.982;2023-12-20T13:57:25;36.83;;;15.17;;
40076;SDS011;25777;47.824;18.982;2023-12-20T13:59:51;37.57;;;15.40;;
40076;SDS011;25777;47.824;18.982;2023-12-20T14:02:16;32.87;;;13.50;;
40076;SDS011;25777;47.824;18.982;2023-12-20T14:04:42;27.50;;;12.00;;
40076;SDS011;25777;47.824;18.982;2023-12-20T14:07:10;33.77;;;14.93;;
40076;SDS011;25777;47.824;18.982;2023-12-20T14:09:35;32.17;;;13.13;;
40076;SDS011;25777;47.824;18.982;2023-12-20T14:12:01;37.50;;;16.07;;
40076;SDS011;25777;47.824;18.982;2023-12-20T14:14:27;36.80;;;13.87;;
40076;SDS011;25777;47.824;18.982;2023-12-20T14:16:53;27.97;;;12.73;;
40076;SDS011;25777;47.824;18.982;2023-12-20T14:19:19;30.77;;;13.67;;
40076;SDS011;25777;47.824;18.982;2023-12-20T14:21:45;29.37;;;12.80;;
40076;SDS011;25777;47.824;18.982;2023-12-20T14:24:14;28.07;;;11.27;;
40076;SDS011;25777;47.824;18.982;2023-12-20T14:26:40;30.67;;;12.90;;
40076;SDS011;25777;47.824;18.982;2023-12-20T14:29:06;35.27;;;12.50;;
40076;SDS011;25777;47.824;18.982;2023-12-20T14:31:33;25.17;;;11.17;;